Time,TemperatureF,DewpointF,PressureIn,WindDirection,WindDirectionDegrees,WindSpeedMPH,WindSpeedGustMPH,Humidity,HourlyPrecipIn,Conditions,Clouds,dailyrainin,SoftwareType,DateUTC
2013-04-10 00:02:00,8.4,5.4,30.01,East,85,2.0,3.0,87,0.00,,,0.06,meteohub,2013-04-10 06:02:00,
2013-04-10 00:08:00,8.2,5.0,30.02,East,85,5.0,5.0,86,0.00,,,0.00,meteohub,2013-04-10 06:08:00,
2013-04-10 00:15:00,8.2,5.4,30.02,East,85,5.0,5.0,88,0.00,,,0.00,meteohub,2013-04-10 06:15:00,
2013-04-10 00:21:00,8.2,5.4,30.03,East,85,3.0,6.0,88,0.00,,,0.00,meteohub,2013-04-10 06:21:00,
2013-04-10 00:27:00,8.4,5.5,30.03,East,85,3.0,6.0,88,0.00,,,0.00,meteohub,2013-04-10 06:27:00,
2013-04-10 00:33:00,8.4,5.5,30.04,East,85,3.0,6.0,88,0.00,,,0.00,meteohub,2013-04-10 06:33:00,
2013-04-10 00:39:00,8.2,5.2,30.04,East,85,3.0,6.0,87,0.00,,,0.00,meteohub,2013-04-10 06:39:00,
2013-04-10 00:45:00,8.4,5.5,30.04,East,85,5.0,6.0,88,0.00,,,0.00,meteohub,2013-04-10 06:45:00,
2013-04-10 00:51:00,8.2,5.4,30.04,East,85,3.0,6.0,88,0.00,,,0.00,meteohub,2013-04-10 06:51:00,
2013-04-10 00:57:00,8.2,5.2,30.04,East,85,5.0,6.0,87,0.00,,,0.00,meteohub,2013-04-10 06:57:00,
2013-04-10 01:03:00,8.2,5.4,30.04,East,85,2.0,6.0,88,0.00,,,0.00,meteohub,2013-04-10 07:03:00,
2013-04-10 01:09:00,8.1,5.0,30.05,East,85,2.0,5.0,87,0.00,,,0.00,meteohub,2013-04-10 07:09:00,
2013-04-10 01:15:00,7.9,4.8,30.05,East,85,0.0,5.0,87,0.00,,,0.00,meteohub,2013-04-10 07:15:00,
2013-04-10 01:22:00,7.5,4.5,30.06,East,85,0.0,3.0,87,0.00,,,0.00,meteohub,2013-04-10 07:22:00,
2013-04-10 01:28:00,7.5,4.5,30.05,East,85,0.0,2.0,87,0.00,,,0.00,meteohub,2013-04-10 07:28:00,
2013-04-10 01:34:00,7.3,4.3,30.05,East,85,0.0,2.0,87,0.00,,,0.00,meteohub,2013-04-10 07:34:00,
2013-04-10 01:40:00,7.2,3.9,30.05,East,85,1.0,2.0,86,0.00,,,0.00,meteohub,2013-04-10 07:40:00,
2013-04-10 01:46:00,7.0,3.7,30.05,East,85,1.0,2.0,86,0.00,,,0.00,meteohub,2013-04-10 07:46:00,
2013-04-10 01:52:00,6.8,3.6,30.05,East,85,0.0,2.0,86,0.00,,,0.00,meteohub,2013-04-10 07:52:00,
2013-04-10 01:58:00,6.8,3.7,30.05,East,85,0.0,2.0,87,0.00,,,0.00,meteohub,2013-04-10 07:58:00,
2013-04-10 02:04:00,6.8,3.7,30.06,East,85,0.0,2.0,87,0.00,,,0.00,meteohub,2013-04-10 08:04:00,
2013-04-10 02:10:00,6.8,3.7,30.05,East,85,0.0,0.0,87,0.00,,,0.00,meteohub,2013-04-10 08:10:00,
2013-04-10 02:16:00,6.4,3.4,30.05,East,85,0.0,0.0,87,0.00,,,0.00,meteohub,2013-04-10 08:16:00,
2013-04-10 02:22:00,6.3,3.0,30.05,East,85,0.0,1.0,86,0.00,,,0.00,meteohub,2013-04-10 08:22:00,
2013-04-10 02:28:00,6.3,3.2,30.05,East,85,1.0,1.0,87,0.00,,,0.00,meteohub,2013-04-10 08:28:00,
2013-04-10 02:35:00,6.3,3.2,30.06,East,85,2.0,2.0,87,0.00,,,0.00,meteohub,2013-04-10 08:35:00,
2013-04-10 02:41:00,6.1,3.0,30.06,East,85,2.0,3.0,87,0.00,,,0.00,meteohub,2013-04-10 08:41:00,
2013-04-10 02:47:00,6.1,3.0,30.06,East,85,0.0,3.0,87,0.00,,,0.00,meteohub,2013-04-10 08:47:00,
2013-04-10 02:52:00,6.1,3.0,30.06,East,85,0.0,3.0,87,0.00,,,0.00,meteohub,2013-04-10 08:52:00,
2013-04-10 02:59:00,6.1,3.0,30.06,East,85,0.0,3.0,87,0.00,,,0.00,meteohub,2013-04-10 08:59:00,
2013-04-10 03:05:00,5.7,2.7,30.07,East,85,0.0,2.0,87,0.00,,,0.00,meteohub,2013-04-10 09:05:00,
2013-04-10 03:11:00,5.7,2.7,30.08,East,85,1.0,0.0,87,0.00,,,0.00,meteohub,2013-04-10 09:11:00,
2013-04-10 03:17:00,6.3,3.6,30.09,East,85,0.0,1.0,88,0.00,,,0.00,meteohub,2013-04-10 09:17:00,
2013-04-10 03:23:00,6.8,4.3,30.09,East,85,0.0,1.0,89,0.00,,,0.00,meteohub,2013-04-10 09:23:00,
2013-04-10 03:29:00,7.3,5.0,30.10,East,85,0.0,2.0,90,0.00,,,0.00,meteohub,2013-04-10 09:29:00,
2013-04-10 03:35:00,7.7,5.4,30.10,East,85,0.0,2.0,90,0.00,,,0.00,meteohub,2013-04-10 09:35:00,
2013-04-10 03:41:00,8.1,5.5,30.10,East,85,0.0,3.0,89,0.00,,,0.00,meteohub,2013-04-10 09:41:00,
2013-04-10 03:47:00,8.2,5.7,30.10,East,85,0.0,3.0,89,0.00,,,0.00,meteohub,2013-04-10 09:47:00,
2013-04-10 03:53:00,8.2,5.7,30.10,East,85,0.0,1.0,89,0.00,,,0.00,meteohub,2013-04-10 09:53:00,
2013-04-10 03:59:00,8.4,5.9,30.10,East,85,0.0,1.0,89,0.00,,,0.00,meteohub,2013-04-10 09:59:00,
2013-04-10 04:05:00,8.4,5.9,30.10,East,85,0.0,0.0,89,0.00,,,0.00,meteohub,2013-04-10 10:05:00,
2013-04-10 04:11:00,8.4,5.9,30.11,East,85,0.0,0.0,89,0.00,,,0.00,meteohub,2013-04-10 10:11:00,
2013-04-10 04:17:00,8.4,5.5,30.12,East,85,0.0,0.0,88,0.00,,,0.00,meteohub,2013-04-10 10:17:00,
2013-04-10 04:23:00,8.4,5.5,30.12,East,85,0.0,0.0,88,0.00,,,0.00,meteohub,2013-04-10 10:23:00,
2013-04-10 04:29:00,8.4,5.5,30.12,East,85,0.0,0.0,88,0.00,,,0.00,meteohub,2013-04-10 10:29:00,
2013-04-10 04:35:00,8.6,5.7,30.12,East,85,0.0,2.0,88,0.00,,,0.00,meteohub,2013-04-10 10:35:00,
2013-04-10 04:42:00,8.4,5.5,30.13,East,85,0.0,2.0,88,0.00,,,0.00,meteohub,2013-04-10 10:42:00,
2013-04-10 04:48:00,8.4,5.5,30.13,East,85,0.0,0.0,88,0.00,,,0.00,meteohub,2013-04-10 10:48:00,
2013-04-10 04:54:00,8.4,5.5,30.13,East,85,0.0,0.0,88,0.00,,,0.00,meteohub,2013-04-10 10:54:00,
2013-04-10 05:00:00,8.4,5.5,30.14,East,85,0.0,0.0,88,0.00,,,0.00,meteohub,2013-04-10 11:00:00,
2013-04-10 05:06:00,8.4,5.5,30.14,East,85,0.0,0.0,88,0.00,,,0.00,meteohub,2013-04-10 11:06:00,
2013-04-10 05:12:00,8.4,5.5,30.15,East,85,0.0,1.0,88,0.00,,,0.00,meteohub,2013-04-10 11:12:00,
2013-04-10 05:18:00,8.4,5.5,30.15,East,85,2.0,2.0,88,0.00,,,0.00,meteohub,2013-04-10 11:18:00,
2013-04-10 05:24:00,8.4,5.5,30.16,East,85,2.0,2.0,88,0.00,,,0.00,meteohub,2013-04-10 11:24:00,
2013-04-10 05:30:00,8.4,5.5,30.17,East,85,0.0,2.0,88,0.00,,,0.00,meteohub,2013-04-10 11:30:00,
2013-04-10 05:37:00,8.4,5.5,30.17,East,85,0.0,2.0,88,0.00,,,0.00,meteohub,2013-04-10 11:37:00,
2013-04-10 05:43:00,8.4,5.5,30.18,East,85,0.0,1.0,88,0.00,,,0.00,meteohub,2013-04-10 11:43:00,
2013-04-10 05:49:00,8.4,5.5,30.18,East,85,0.0,1.0,88,0.00,,,0.00,meteohub,2013-04-10 11:49:00,
2013-04-10 05:55:00,8.4,5.5,30.18,East,85,0.0,0.0,88,0.00,,,0.00,meteohub,2013-04-10 11:55:00,
2013-04-10 06:01:00,8.4,5.5,30.18,East,85,0.0,0.0,88,0.00,,,0.00,meteohub,2013-04-10 12:01:00,
2013-04-10 06:07:00,8.4,5.5,30.19,East,85,0.0,0.0,88,0.00,,,0.00,meteohub,2013-04-10 12:07:00,
2013-04-10 06:13:00,8.4,5.5,30.19,East,85,0.0,0.0,88,0.00,,,0.00,meteohub,2013-04-10 12:13:00,
2013-04-10 06:19:00,8.4,5.5,30.19,East,85,0.0,0.0,88,0.00,,,0.00,meteohub,2013-04-10 12:19:00,
2013-04-10 06:25:00,8.6,5.7,30.19,East,85,1.0,0.0,88,0.00,,,0.00,meteohub,2013-04-10 12:25:00,
2013-04-10 06:31:00,8.6,5.7,30.19,East,85,0.0,2.0,88,0.00,,,0.00,meteohub,2013-04-10 12:31:00,
2013-04-10 06:38:00,8.6,5.5,30.19,East,85,2.0,2.0,87,0.00,,,0.00,meteohub,2013-04-10 12:38:00,
2013-04-10 06:44:00,8.6,5.5,30.19,East,85,3.0,3.0,87,0.00,,,0.00,meteohub,2013-04-10 12:44:00,
2013-04-10 06:50:00,8.4,5.4,30.19,East,85,0.0,3.0,87,0.00,,,0.00,meteohub,2013-04-10 12:50:00,
2013-04-10 06:56:00,8.2,5.2,30.20,East,85,0.0,3.0,87,0.00,,,0.00,meteohub,2013-04-10 12:56:00,
2013-04-10 07:02:00,8.1,5.0,30.20,East,85,0.0,2.0,87,0.00,,,0.00,meteohub,2013-04-10 13:02:00,
2013-04-10 07:08:00,7.9,4.6,30.20,East,85,0.0,1.0,86,0.00,,,0.00,meteohub,2013-04-10 13:08:00,
2013-04-10 07:14:00,7.7,4.5,30.20,East,85,0.0,1.0,86,0.00,,,0.00,meteohub,2013-04-10 13:14:00,
2013-04-10 07:20:00,7.9,4.6,30.20,East,85,0.0,2.0,86,0.00,,,0.00,meteohub,2013-04-10 13:20:00,
2013-04-10 07:26:00,7.9,4.6,30.20,East,85,0.0,2.0,86,0.00,,,0.00,meteohub,2013-04-10 13:26:00,
2013-04-10 07:32:00,8.4,5.5,30.21,East,85,0.0,2.0,88,0.00,,,0.00,meteohub,2013-04-10 13:32:00,
2013-04-10 07:38:00,9.7,7.2,30.21,East,85,0.0,0.0,89,0.00,,,0.00,meteohub,2013-04-10 13:38:00,
2013-04-10 07:44:00,10.4,7.5,30.21,East,85,0.0,1.0,88,0.00,,,0.00,meteohub,2013-04-10 13:44:00,
2013-04-10 07:50:00,10.8,7.7,30.21,East,85,0.0,1.0,87,0.00,,,0.00,meteohub,2013-04-10 13:50:00,
2013-04-10 07:56:00,11.1,8.1,30.21,East,85,0.0,0.0,87,0.00,,,0.00,meteohub,2013-04-10 13:56:00,
2013-04-10 08:02:00,11.3,7.9,30.21,East,85,0.0,0.0,86,0.00,,,0.00,meteohub,2013-04-10 14:02:00,
2013-04-10 08:08:00,11.1,7.7,30.20,East,85,0.0,0.0,86,0.00,,,0.00,meteohub,2013-04-10 14:08:00,
2013-04-10 08:14:00,12.2,9.3,30.21,East,85,0.0,0.0,88,0.00,,,0.00,meteohub,2013-04-10 14:14:00,
2013-04-10 08:20:00,13.8,10.9,30.21,East,85,0.0,0.0,88,0.00,,,0.00,meteohub,2013-04-10 14:20:00,
2013-04-10 08:26:00,15.1,12.2,30.21,East,85,0.0,3.0,88,0.00,,,0.00,meteohub,2013-04-10 14:26:00,
2013-04-10 08:32:00,15.4,12.2,30.21,East,85,0.0,3.0,87,0.00,,,0.00,meteohub,2013-04-10 14:32:00,
2013-04-10 08:39:00,16.2,12.7,30.21,East,85,0.0,3.0,86,0.00,,,0.00,meteohub,2013-04-10 14:39:00,
2013-04-10 08:45:00,16.5,13.1,30.21,East,85,0.0,2.0,86,0.00,,,0.00,meteohub,2013-04-10 14:45:00,
2013-04-10 08:51:00,15.6,10.8,30.21,East,85,2.0,2.0,81,0.00,,,0.00,meteohub,2013-04-10 14:51:00,
2013-04-10 08:57:00,13.5,9.0,30.21,East,85,3.0,3.0,82,0.00,,,0.00,meteohub,2013-04-10 14:57:00,
2013-04-10 09:03:00,12.9,8.8,30.21,East,85,2.0,3.0,83,0.00,,,0.00,meteohub,2013-04-10 15:03:00,
2013-04-10 09:09:00,13.3,9.7,30.21,East,85,2.0,6.0,85,0.00,,,0.00,meteohub,2013-04-10 15:09:00,
2013-04-10 09:15:00,14.2,10.8,30.22,East,85,1.0,6.0,86,0.00,,,0.00,meteohub,2013-04-10 15:15:00,
2013-04-10 09:21:00,15.3,11.5,30.22,East,85,0.0,3.0,85,0.00,,,0.00,meteohub,2013-04-10 15:21:00,
2013-04-10 09:28:00,15.6,11.3,30.22,East,85,2.0,2.0,83,0.00,,,0.00,meteohub,2013-04-10 15:28:00,
2013-04-10 09:34:00,15.6,11.7,30.22,East,85,2.0,3.0,84,0.00,,,0.00,meteohub,2013-04-10 15:34:00,
2013-04-10 09:40:00,16.5,12.7,30.23,East,85,1.0,3.0,85,0.00,,,0.00,meteohub,2013-04-10 15:40:00,
2013-04-10 09:46:00,17.8,14.4,30.22,East,85,0.0,3.0,86,0.00,,,0.00,meteohub,2013-04-10 15:46:00,
2013-04-10 09:52:00,18.1,14.2,30.22,East,85,3.0,3.0,84,0.01,,,0.01,meteohub,2013-04-10 15:52:00,
2013-04-10 09:58:00,17.8,13.3,30.22,East,85,2.0,3.0,82,0.01,,,0.01,meteohub,2013-04-10 15:58:00,
2013-04-10 10:04:00,18.9,14.9,30.23,East,85,0.0,5.0,84,0.01,,,0.01,meteohub,2013-04-10 16:04:00,
2013-04-10 10:10:00,20.3,16.2,30.23,East,85,0.0,3.0,84,0.01,,,0.01,meteohub,2013-04-10 16:10:00,
2013-04-10 10:16:00,21.6,17.2,30.22,East,85,0.0,3.0,83,0.01,,,0.01,meteohub,2013-04-10 16:16:00,
2013-04-10 10:22:00,22.3,17.6,30.22,East,85,0.0,3.0,82,0.01,,,0.01,meteohub,2013-04-10 16:22:00,
2013-04-10 10:28:00,24.1,20.5,30.22,East,85,0.0,3.0,86,0.01,,,0.01,meteohub,2013-04-10 16:28:00,
2013-04-10 10:35:00,25.3,20.3,30.21,East,85,0.0,1.0,81,0.02,,,0.02,meteohub,2013-04-10 16:35:00,
2013-04-10 10:41:00,24.8,18.9,30.21,East,85,2.0,5.0,78,0.03,,,0.03,meteohub,2013-04-10 16:41:00,
2013-04-10 10:47:00,24.6,18.7,30.21,East,85,0.0,5.0,78,0.03,,,0.03,meteohub,2013-04-10 16:47:00,
2013-04-10 10:53:00,25.3,19.2,30.21,East,85,0.0,5.0,77,0.02,,,0.03,meteohub,2013-04-10 16:53:00,
2013-04-10 10:59:00,27.0,21.4,30.20,East,85,3.0,3.0,79,0.03,,,0.04,meteohub,2013-04-10 16:59:00,
2013-04-10 11:05:00,25.3,18.0,30.20,East,85,2.0,3.0,73,0.04,,,0.05,meteohub,2013-04-10 17:05:00,
2013-04-10 11:12:00,23.9,16.9,30.19,East,85,3.0,5.0,74,0.04,,,0.05,meteohub,2013-04-10 17:12:00,
2013-04-10 11:18:00,22.6,16.2,30.20,East,85,1.0,6.0,76,0.05,,,0.06,meteohub,2013-04-10 17:18:00,
2013-04-10 11:24:00,23.4,17.6,30.19,East,85,3.0,6.0,78,0.05,,,0.06,meteohub,2013-04-10 17:24:00,
2013-04-10 11:30:00,23.4,16.7,30.19,East,85,0.0,6.0,75,0.05,,,0.06,meteohub,2013-04-10 17:30:00,
2013-04-10 11:36:00,23.9,18.3,30.19,East,85,0.0,5.0,79,0.05,,,0.07,meteohub,2013-04-10 17:36:00,
2013-04-10 11:42:00,24.1,17.2,30.19,East,85,0.0,5.0,75,0.04,,,0.07,meteohub,2013-04-10 17:42:00,
2013-04-10 11:48:00,23.4,17.2,30.19,East,85,0.0,5.0,77,0.04,,,0.07,meteohub,2013-04-10 17:48:00,
2013-04-10 11:54:00,24.6,19.6,30.18,East,85,0.0,6.0,81,0.04,,,0.08,meteohub,2013-04-10 17:54:00,
2013-04-10 12:00:00,25.9,19.9,30.18,East,85,1.0,3.0,78,0.03,,,0.08,meteohub,2013-04-10 18:00:00,
2013-04-10 12:07:00,25.5,18.1,30.17,East,85,2.0,6.0,73,0.04,,,0.09,meteohub,2013-04-10 18:07:00,
2013-04-10 12:13:00,25.5,18.3,30.17,East,85,0.0,6.0,74,0.04,,,0.09,meteohub,2013-04-10 18:13:00,
2013-04-10 12:19:00,26.4,19.6,30.17,East,85,0.0,6.0,75,0.03,,,0.09,meteohub,2013-04-10 18:19:00,
2013-04-10 12:25:00,27.7,21.0,30.17,East,85,0.0,3.0,76,0.03,,,0.09,meteohub,2013-04-10 18:25:00,
2013-04-10 12:31:00,28.9,23.2,30.17,East,85,0.0,2.0,79,0.02,,,0.09,meteohub,2013-04-10 18:31:00,
2013-04-10 12:37:00,29.1,21.9,30.16,East,85,2.0,2.0,74,0.02,,,0.09,meteohub,2013-04-10 18:37:00,
2013-04-10 12:43:00,28.8,20.8,30.16,East,85,1.0,3.0,72,0.02,,,0.09,meteohub,2013-04-10 18:43:00,
2013-04-10 12:49:00,28.6,21.0,30.16,East,85,3.0,3.0,73,0.02,,,0.09,meteohub,2013-04-10 18:49:00,
2013-04-10 12:55:00,27.7,19.2,30.15,East,85,2.0,5.0,70,0.01,,,0.09,meteohub,2013-04-10 18:55:00,
2013-04-10 13:01:00,27.5,19.6,30.16,East,85,1.0,5.0,72,0.01,,,0.09,meteohub,2013-04-10 19:01:00,
2013-04-10 13:07:00,28.0,20.8,30.15,East,85,3.0,5.0,74,0.00,,,0.09,meteohub,2013-04-10 19:07:00,
2013-04-10 13:13:00,28.2,19.4,30.15,East,85,2.0,6.0,69,0.01,,,0.10,meteohub,2013-04-10 19:13:00,
2013-04-10 13:19:00,28.6,20.1,30.15,East,85,1.0,6.0,70,0.01,,,0.10,meteohub,2013-04-10 19:19:00,
2013-04-10 13:25:00,29.1,21.2,30.14,East,85,6.0,7.0,72,0.01,,,0.10,meteohub,2013-04-10 19:25:00,
2013-04-10 13:32:00,29.3,21.7,30.14,East,85,3.0,7.0,73,0.01,,,0.10,meteohub,2013-04-10 19:32:00,
2013-04-10 13:38:00,29.8,21.9,30.13,East,85,3.0,8.0,72,0.01,,,0.10,meteohub,2013-04-10 19:38:00,
2013-04-10 13:44:00,30.6,23.2,30.13,East,85,6.0,8.0,74,0.01,,,0.10,meteohub,2013-04-10 19:44:00,
2013-04-10 13:50:00,30.9,23.0,30.13,East,85,1.0,7.0,72,0.01,,,0.10,meteohub,2013-04-10 19:50:00,
2013-04-10 13:56:00,31.5,23.9,30.13,East,85,7.0,7.0,73,0.01,,,0.10,meteohub,2013-04-10 19:56:00,
2013-04-10 14:02:00,31.5,22.8,30.13,East,85,2.0,7.0,70,0.01,,,0.10,meteohub,2013-04-10 20:02:00,
2013-04-10 14:08:00,31.5,23.5,30.12,East,85,3.0,8.0,72,0.01,,,0.10,meteohub,2013-04-10 20:08:00,
2013-04-10 14:14:00,31.8,23.2,30.12,East,91,6.0,8.0,70,0.00,,,0.10,meteohub,2013-04-10 20:14:00,
2013-04-10 14:20:00,31.8,23.5,30.12,East,93,6.0,8.0,71,0.00,,,0.10,meteohub,2013-04-10 20:20:00,
2013-04-10 14:27:00,32.0,22.6,30.12,SE,131,7.0,9.0,68,0.00,,,0.10,meteohub,2013-04-10 20:27:00,
2013-04-10 14:32:00,32.2,23.5,30.12,SE,131,3.0,9.0,70,0.00,,,0.10,meteohub,2013-04-10 20:32:00,
2013-04-10 14:39:00,32.4,23.0,30.11,SE,131,5.0,9.0,68,0.00,,,0.10,meteohub,2013-04-10 20:39:00,
2013-04-10 14:45:00,32.4,23.7,30.11,West,276,9.0,9.0,70,0.00,,,0.10,meteohub,2013-04-10 20:45:00,
2013-04-10 14:51:00,31.8,23.5,30.11,West,280,12.0,15.0,71,0.00,,,0.10,meteohub,2013-04-10 20:51:00,
2013-04-10 14:57:00,31.8,23.2,30.10,West,275,8.0,15.0,70,0.00,,,0.10,meteohub,2013-04-10 20:57:00,
2013-04-10 15:03:00,31.8,23.2,30.09,West,273,8.0,17.0,70,0.00,,,0.10,meteohub,2013-04-10 21:03:00,
2013-04-10 15:09:00,32.0,22.6,30.09,WNW,282,14.0,19.0,68,0.00,,,0.10,meteohub,2013-04-10 21:09:00,
2013-04-10 15:15:00,31.8,22.1,30.08,West,260,17.0,20.0,67,0.00,,,0.10,meteohub,2013-04-10 21:15:00,
2013-04-10 15:21:00,32.4,23.0,30.08,West,280,15.0,22.0,68,0.00,,,0.10,meteohub,2013-04-10 21:21:00,
2013-04-10 15:27:00,32.2,22.1,30.08,West,275,18.0,22.0,66,0.00,,,0.10,meteohub,2013-04-10 21:27:00,
2013-04-10 15:33:00,32.2,21.7,30.08,West,266,13.0,20.0,65,0.00,,,0.10,meteohub,2013-04-10 21:33:00,
2013-04-10 15:40:00,31.8,21.0,30.07,WSW,249,14.0,20.0,64,0.00,,,0.10,meteohub,2013-04-10 21:40:00,
2013-04-10 15:46:00,32.4,21.9,30.07,West,267,7.0,18.0,65,0.00,,,0.10,meteohub,2013-04-10 21:46:00,
2013-04-10 15:52:00,33.4,22.6,30.06,SW,230,10.0,18.0,64,0.00,,,0.10,meteohub,2013-04-10 21:52:00,
2013-04-10 15:58:00,33.3,22.1,30.06,SW,223,11.0,16.0,63,0.00,,,0.10,meteohub,2013-04-10 21:58:00,
2013-04-10 16:04:00,34.2,21.4,30.06,SW,232,12.0,14.0,59,0.00,,,0.10,meteohub,2013-04-10 22:04:00,
2013-04-10 16:10:00,34.5,21.2,30.06,SW,216,7.0,14.0,58,0.00,,,0.10,meteohub,2013-04-10 22:10:00,
2013-04-10 16:16:00,34.0,21.2,30.05,WSW,238,12.0,12.0,59,0.00,,,0.10,meteohub,2013-04-10 22:16:00,
2013-04-10 16:22:00,33.6,20.5,30.05,West,265,11.0,15.0,58,0.00,,,0.10,meteohub,2013-04-10 22:22:00,
2013-04-10 16:28:00,34.0,19.9,30.05,West,274,11.0,15.0,56,0.00,,,0.10,meteohub,2013-04-10 22:28:00,
2013-04-10 16:34:00,34.2,20.1,30.05,West,276,15.0,19.0,56,0.00,,,0.10,meteohub,2013-04-10 22:34:00,
2013-04-10 16:40:00,33.4,19.8,30.05,West,278,12.0,18.0,57,0.00,,,0.10,meteohub,2013-04-10 22:40:00,
2013-04-10 16:46:00,33.3,20.1,30.05,West,274,4.0,18.0,58,0.00,,,0.10,meteohub,2013-04-10 22:46:00,
2013-04-10 16:52:00,33.1,19.9,30.05,West,280,10.0,18.0,58,0.00,,,0.10,meteohub,2013-04-10 22:52:00,
2013-04-10 16:58:00,32.7,19.9,30.05,West,278,10.0,18.0,59,0.00,,,0.10,meteohub,2013-04-10 22:58:00,
2013-04-10 17:05:00,32.7,19.6,30.05,West,272,15.0,26.0,58,0.00,,,0.10,meteohub,2013-04-10 23:05:00,
2013-04-10 17:11:00,32.7,19.6,30.05,WSW,243,17.0,26.0,58,0.00,,,0.10,meteohub,2013-04-10 23:11:00,
2013-04-10 17:17:00,32.7,20.3,30.05,West,260,10.0,26.0,60,0.00,,,0.10,meteohub,2013-04-10 23:17:00,
2013-04-10 17:23:00,32.5,20.1,30.05,West,274,16.0,20.0,60,0.00,,,0.10,meteohub,2013-04-10 23:23:00,
2013-04-10 17:29:00,32.7,19.6,30.05,West,274,18.0,19.0,58,0.00,,,0.10,meteohub,2013-04-10 23:29:00,
2013-04-10 17:35:00,32.5,19.8,30.05,West,268,12.0,19.0,59,0.00,,,0.10,meteohub,2013-04-10 23:35:00,
2013-04-10 17:41:00,32.4,19.6,30.05,West,264,10.0,19.0,59,0.00,,,0.10,meteohub,2013-04-10 23:41:00,
2013-04-10 17:48:00,32.4,19.2,30.04,West,273,5.0,18.0,58,0.00,,,0.10,meteohub,2013-04-10 23:48:00,
2013-04-10 17:54:00,32.5,19.4,30.04,West,271,11.0,21.0,58,0.00,,,0.10,meteohub,2013-04-10 23:54:00,
2013-04-10 18:00:00,32.5,19.4,30.04,WSW,249,7.0,19.0,58,0.00,,,0.10,meteohub,2013-04-11 00:00:00,
2013-04-10 18:06:00,32.0,19.2,30.04,West,261,4.0,19.0,59,0.00,,,0.10,meteohub,2013-04-11 00:06:00,
2013-04-10 18:12:00,32.2,20.3,30.05,West,275,10.0,19.0,61,0.00,,,0.10,meteohub,2013-04-11 00:12:00,
2013-04-10 18:18:00,32.7,19.9,30.05,WSW,237,9.0,22.0,59,0.00,,,0.10,meteohub,2013-04-11 00:18:00,
2013-04-10 18:25:00,32.7,19.9,30.05,West,270,6.0,22.0,59,0.00,,,0.10,meteohub,2013-04-11 00:25:00,
2013-04-10 18:31:00,32.5,19.8,30.05,WSW,247,5.0,19.0,59,0.00,,,0.10,meteohub,2013-04-11 00:31:00,
2013-04-10 18:37:00,32.4,19.6,30.04,West,268,10.0,19.0,59,0.00,,,0.10,meteohub,2013-04-11 00:37:00,
2013-04-10 18:43:00,31.8,19.6,30.04,West,271,5.0,21.0,60,0.00,,,0.10,meteohub,2013-04-11 00:43:00,
2013-04-10 18:49:00,31.5,19.2,30.04,West,272,11.0,24.0,60,0.00,,,0.10,meteohub,2013-04-11 00:49:00,
2013-04-10 18:55:00,31.3,19.4,30.05,West,266,12.0,25.0,61,0.00,,,0.10,meteohub,2013-04-11 00:55:00,
2013-04-10 19:01:00,30.7,18.5,30.05,West,262,15.0,25.0,60,0.00,,,0.10,meteohub,2013-04-11 01:01:00,
2013-04-10 19:07:00,30.2,18.3,30.05,West,275,15.0,21.0,61,0.00,,,0.10,meteohub,2013-04-11 01:07:00,
2013-04-10 19:13:00,29.8,18.5,30.05,West,279,11.0,22.0,62,0.00,,,0.10,meteohub,2013-04-11 01:13:00,
2013-04-10 19:19:00,29.7,18.7,30.05,West,264,15.0,22.0,63,0.00,,,0.10,meteohub,2013-04-11 01:19:00,
2013-04-10 19:25:00,29.3,18.3,30.05,West,268,9.0,23.0,63,0.00,,,0.10,meteohub,2013-04-11 01:25:00,
2013-04-10 19:31:00,29.1,18.5,30.06,West,262,10.0,23.0,64,0.00,,,0.10,meteohub,2013-04-11 01:31:00,
2013-04-10 19:37:00,28.9,18.3,30.06,WNW,284,15.0,22.0,64,0.00,,,0.10,meteohub,2013-04-11 01:37:00,
2013-04-10 19:43:00,28.8,18.1,30.07,West,262,11.0,25.0,64,0.00,,,0.10,meteohub,2013-04-11 01:43:00,
2013-04-10 19:49:00,28.6,18.0,30.06,WNW,284,16.0,25.0,64,0.00,,,0.10,meteohub,2013-04-11 01:49:00,
2013-04-10 19:55:00,28.6,18.0,30.06,West,276,16.0,26.0,64,0.00,,,0.10,meteohub,2013-04-11 01:55:00,
2013-04-10 20:01:00,28.4,17.8,30.07,West,276,18.0,28.0,64,0.00,,,0.10,meteohub,2013-04-11 02:01:00,
2013-04-10 20:08:00,28.2,17.6,30.07,West,274,17.0,28.0,64,0.00,,,0.10,meteohub,2013-04-11 02:08:00,
2013-04-10 20:14:00,28.0,17.4,30.08,West,269,17.0,27.0,64,0.00,,,0.10,meteohub,2013-04-11 02:14:00,
2013-04-10 20:20:00,28.0,17.1,30.08,West,264,18.0,26.0,63,0.00,,,0.10,meteohub,2013-04-11 02:20:00,
2013-04-10 20:26:00,28.0,17.4,30.08,West,275,11.0,26.0,64,0.00,,,0.10,meteohub,2013-04-11 02:26:00,
2013-04-10 20:32:00,27.9,17.2,30.09,West,265,14.0,26.0,64,0.00,,,0.10,meteohub,2013-04-11 02:32:00,
2013-04-10 20:38:00,27.7,17.1,30.09,WSW,255,7.0,26.0,64,0.00,,,0.10,meteohub,2013-04-11 02:38:00,
2013-04-10 20:44:00,27.9,16.2,30.09,West,278,12.0,23.0,61,0.00,,,0.10,meteohub,2013-04-11 02:44:00,
2013-04-10 20:50:00,27.9,16.2,30.09,West,268,8.0,19.0,61,0.00,,,0.10,meteohub,2013-04-11 02:50:00,
2013-04-10 20:56:00,27.5,16.2,30.09,WSW,251,5.0,19.0,62,0.00,,,0.10,meteohub,2013-04-11 02:56:00,
2013-04-10 21:02:00,27.7,16.3,30.10,West,276,9.0,15.0,62,0.00,,,0.10,meteohub,2013-04-11 03:02:00,
2013-04-10 21:08:00,27.3,16.0,30.10,West,272,10.0,22.0,62,0.00,,,0.10,meteohub,2013-04-11 03:08:00,
2013-04-10 21:14:00,27.3,16.0,30.10,WNW,284,12.0,22.0,62,0.00,,,0.10,meteohub,2013-04-11 03:14:00,
2013-04-10 21:20:00,27.1,15.8,30.11,West,268,10.0,26.0,62,0.00,,,0.10,meteohub,2013-04-11 03:20:00,
2013-04-10 21:26:00,27.1,15.8,30.11,West,265,10.0,26.0,62,0.00,,,0.10,meteohub,2013-04-11 03:26:00,
2013-04-10 21:32:00,27.0,15.6,30.11,West,259,18.0,23.0,62,0.00,,,0.10,meteohub,2013-04-11 03:32:00,
2013-04-10 21:38:00,27.1,15.4,30.12,West,274,12.0,23.0,61,0.00,,,0.10,meteohub,2013-04-11 03:38:00,
2013-04-10 21:45:00,27.1,14.7,30.12,West,270,8.0,23.0,59,0.00,,,0.10,meteohub,2013-04-11 03:45:00,
2013-04-10 21:51:00,27.0,14.9,30.12,West,259,9.0,21.0,60,0.00,,,0.10,meteohub,2013-04-11 03:51:00,
2013-04-10 21:57:00,26.8,14.7,30.13,West,262,6.0,21.0,60,0.00,,,0.10,meteohub,2013-04-11 03:57:00,
2013-04-10 22:00:00,26.6,14.5,30.12,West,270,8.0,21.0,60,0.00,,,0.10,meteohub,2013-04-11 04:00:00,
2013-04-10 22:02:00,26.4,14.4,30.12,WNW,283,8.0,15.0,60,0.00,,,0.10,meteohub,2013-04-11 04:02:00,
2013-04-10 22:03:00,26.4,14.4,30.12,WNW,288,6.0,15.0,60,0.00,,,0.10,meteohub,2013-04-11 04:03:00,
2013-04-10 22:09:00,26.2,14.5,30.13,West,274,10.0,17.0,61,0.00,,,0.10,meteohub,2013-04-11 04:09:00,
2013-04-10 22:15:00,25.9,14.7,30.12,West,278,11.0,17.0,62,0.00,,,0.10,meteohub,2013-04-11 04:15:00,
2013-04-10 22:21:00,25.5,14.7,30.11,West,260,11.0,17.0,63,0.00,,,0.10,meteohub,2013-04-11 04:21:00,
2013-04-10 22:27:00,25.7,14.2,30.11,WNW,292,17.0,18.0,61,0.00,,,0.10,meteohub,2013-04-11 04:27:00,
2013-04-10 22:33:00,25.9,13.5,30.11,West,267,13.0,21.0,59,0.00,,,0.10,meteohub,2013-04-11 04:33:00,
2013-04-10 22:39:00,26.1,13.3,30.11,West,279,14.0,21.0,58,0.00,,,0.10,meteohub,2013-04-11 04:39:00,
2013-04-10 22:45:00,26.1,13.3,30.11,WNW,284,14.0,23.0,58,0.00,,,0.10,meteohub,2013-04-11 04:45:00,
2013-04-10 22:51:00,25.9,13.1,30.11,WSW,251,16.0,23.0,58,0.00,,,0.10,meteohub,2013-04-11 04:51:00,
2013-04-10 22:57:00,25.5,12.7,30.11,NW,323,12.0,23.0,58,0.00,,,0.10,meteohub,2013-04-11 04:57:00,
2013-04-10 23:03:00,25.3,13.1,30.11,WNW,302,7.0,22.0,59,0.00,,,0.10,meteohub,2013-04-11 05:03:00,
2013-04-10 23:09:00,25.2,12.0,30.11,West,278,12.0,19.0,57,0.00,,,0.10,meteohub,2013-04-11 05:09:00,
2013-04-10 23:15:00,25.2,10.9,30.10,WNW,288,6.0,19.0,54,0.00,,,0.10,meteohub,2013-04-11 05:15:00,
2013-04-10 23:22:00,25.5,11.1,30.10,WNW,287,6.0,21.0,54,0.00,,,0.10,meteohub,2013-04-11 05:22:00,
2013-04-10 23:28:00,25.2,11.3,30.09,WNW,289,7.0,21.0,55,0.00,,,0.10,meteohub,2013-04-11 05:28:00,
2013-04-10 23:34:00,25.0,11.1,30.09,WNW,302,4.0,21.0,55,0.00,,,0.10,meteohub,2013-04-11 05:34:00,
2013-04-10 23:40:00,25.0,9.0,30.08,West,273,9.0,14.0,50,0.00,,,0.10,meteohub,2013-04-11 05:40:00,
2013-04-10 23:46:00,25.3,8.8,30.07,West,273,9.0,15.0,49,0.00,,,0.10,meteohub,2013-04-11 05:46:00,
2013-04-10 23:52:00,25.3,9.3,30.06,WNW,299,10.0,15.0,50,0.00,,,0.10,meteohub,2013-04-11 05:52:00,
2013-04-10 23:58:00,25.0,9.9,30.07,WNW,293,5.0,15.0,52,0.00,,,0.10,meteohub,2013-04-11 05:58:00,